Main page
METAR-TAF:

METAR-TAF

Airports :

Jammu Airport

Jammu, India

latitude: 32-41-21N, longitude: 74-50-15E, elevation: 314 m

Current weather observation

The report was made 12 hours and 41 minutes ago, at 13:30 UTC
Wind 2 kt from variable directions
Temperature 18°C
Humidity 64%
Pressure 1017 hPa
Visibility: 5000 m
Few clouds at a height of 3000 ft
Broken clouds at a height of 20000 ft
haze

METAR: VIJU 151330Z VRB02KT 5000 HZ FEW030 BKN200 18/11 Q1017 NOSIG

Time: 07:41 (02:11 UTC)


TAF: missing

Weather observations and forecasts of more than 4000 airports (METAR and TAF reports).

The available stations are represented by yellow and red dots on the map.

Hover mouse over dot to see the name of the station.

Then click to see weather observations and forecasts.

To change the map : click on the green buttons with a black cross to zoom in, on the green button with a dash to zoom out, or on the green arrows for adjacent maps.


METAR-TAF: